Palmdale, CA

8:55 AM PST on March 06, 2015 (GMT -0800)
Palmdale Af Plant 42 | Change Station
CLOSE
Current Station
Airport
Location: Palmdale,
Elevation: 2543 ft
Nearby Weather Stations

Elev 2543 ft 34.63 °N, 118.08 °W | Updated 1 hour ago

Clear
Clear
42 °F
Feels Like 42 °F
N
0
Wind Variable Wind from North

Today
High -- | Low -- °F
--% Chance of Precip.
Yesterday
High -- | Low -- °F
Precip. -- in
6:15 AM 5:52 PM
Full, 99% visible
Pressure 30.31 in
Visibility 10.0 miles
Clouds Clear
Dew Point 22 °F
Humidity 45%
Rainfall 0.00 in
Snow Depth Not available.
UV 1 out of 12
Pollen 9.20 out of 12
Air Quality Not available.
Flu Activity Not available.
METAR KPMD 061553Z AUTO 00000KT 10SM CLR 06/M06 A3030 RMK AO2 SLP262 T00561056

More Conditions Fewer Conditions

Pressure 30.31 in
Visibility 10.0 miles
Clouds Clear
Dew Point 22 °F
Humidity 45%
Rainfall 0.00 in
Snow Depth Not available.
UV 1 out of 12
Pollen 9.20 out of 12
Air Quality Not available.
Flu Activity Not available.
METAR KPMD 061553Z AUTO 00000KT 10SM CLR 06/M06 A3030 RMK AO2 SLP262 T00561056

More Conditions Fewer Conditions

10-Day Weather Forecast

Almanac

Astronomy

Mar. 06, 2015 Rise Set
Actual Time
Civil Twilight
Nautical Twilight
Astronomical Twilight
Moon
Length of Visible Light
Length of Day
Tomorrow will be .
, % of the Moon is Illuminated

Today's Extremes

State Highs State Lows

Community

WunderPhotos

Upload Photos

1,803,336 photos uploaded!

WunderBlogs® & News

Nearby

Air Quality

  Air Quality AQ Index Pollutant
Not available.

Snow Depth

Station Depth Elevation

Earthquake Activity

City Distance Mag. Time & Date
Minimum magnitude displayed is 2.5.

Coastal Water Temperatures

Place Temperature

Nearby Weather Stations